createdAt,value
2019-02-06T00:01:33.867Z,15.60
2019-02-06T00:04:15.548Z,15.47
2019-02-06T00:06:56.936Z,16.30
2019-02-06T00:09:38.341Z,16.27
2019-02-06T00:12:19.797Z,16.10
2019-02-06T00:15:01.280Z,16.90
2019-02-06T00:17:40.705Z,15.80
2019-02-06T00:20:29.208Z,16.20
2019-02-06T00:23:17.428Z,16.63
2019-02-06T00:26:05.641Z,15.83
2019-02-06T00:28:48.557Z,14.70
2019-02-06T00:31:18.319Z,15.07
2019-02-06T00:34:06.519Z,13.80
2019-02-06T00:36:55.022Z,15.37
2019-02-06T00:39:43.519Z,14.50
2019-02-06T00:42:31.791Z,15.40
2019-02-06T00:45:20.356Z,14.33
2019-02-06T00:48:08.566Z,15.60
2019-02-06T00:50:56.794Z,16.47
2019-02-06T00:53:45.076Z,15.90
2019-02-06T00:56:33.391Z,16.33
2019-02-06T00:59:21.855Z,14.97
2019-02-06T01:02:11.878Z,13.93
2019-02-06T01:05:00.204Z,14.70
2019-02-06T01:07:48.473Z,16.53
2019-02-06T01:10:36.987Z,14.80
2019-02-06T01:13:25.315Z,15.27
2019-02-06T01:16:13.551Z,15.30
2019-02-06T01:18:55.151Z,16.37
2019-02-06T01:21:36.932Z,16.40
2019-02-06T01:24:06.067Z,16.87
2019-02-06T01:26:54.555Z,15.70
2019-02-06T01:29:35.943Z,14.60
2019-02-06T01:35:16.051Z,15.60
2019-02-06T01:37:56.559Z,16.60
2019-02-06T01:40:37.535Z,15.33
2019-02-06T01:43:18.895Z,15.00
2019-02-06T01:45:59.884Z,15.13
2019-02-06T01:48:40.251Z,15.93
2019-02-06T01:51:21.340Z,14.73
2019-02-06T01:53:50.831Z,14.80
2019-02-06T01:56:39.147Z,15.90
2019-02-06T01:59:27.354Z,14.63
2019-02-06T02:02:15.678Z,16.10
2019-02-06T02:05:04.028Z,15.10
2019-02-06T02:07:54.052Z,13.70
2019-02-06T02:10:42.371Z,14.30
2019-02-06T02:13:30.596Z,14.83
2019-02-06T02:16:19.095Z,15.10
2019-02-06T02:19:07.324Z,14.33
2019-02-06T02:21:56.175Z,16.50
2019-02-06T02:24:44.707Z,15.37
2019-02-06T02:27:33.318Z,12.63
2019-02-06T02:33:42.545Z,13.90
2019-02-06T02:36:24.101Z,13.20
2019-02-06T02:39:05.184Z,15.27
2019-02-06T02:41:45.760Z,15.50
2019-02-06T02:44:26.761Z,16.37
2019-02-06T02:47:07.549Z,14.53
2019-02-06T02:49:48.379Z,15.80
2019-02-06T02:52:29.279Z,15.13
2019-02-06T02:55:10.292Z,13.50
2019-02-06T02:57:51.293Z,14.17
2019-02-06T03:03:51.186Z,13.27
2019-02-06T03:06:32.725Z,14.40
2019-02-06T03:09:14.188Z,13.30
2019-02-06T03:11:54.947Z,15.00
2019-02-06T03:14:35.841Z,14.23
2019-02-06T03:17:16.719Z,14.23
2019-02-06T03:19:58.032Z,13.17
2019-02-06T03:22:39.117Z,13.47
2019-02-06T03:25:19.840Z,12.70
2019-02-06T03:28:00.861Z,12.70
2019-02-06T03:30:41.763Z,14.63
2019-02-06T03:33:22.361Z,13.47
2019-02-06T03:36:03.175Z,12.30
2019-02-06T03:38:43.903Z,13.23
2019-02-06T03:41:23.371Z,13.10
2019-02-06T03:44:11.824Z,15.17
2019-02-06T03:47:00.048Z,13.00
2019-02-06T03:49:48.356Z,13.57
2019-02-06T03:52:36.572Z,12.23
2019-02-06T03:55:24.801Z,13.73
2019-02-06T03:58:13.304Z,12.57
2019-02-06T04:01:01.527Z,13.37
2019-02-06T04:03:49.807Z,12.77
2019-02-06T04:06:38.056Z,13.43
2019-02-06T04:09:26.268Z,13.17
2019-02-06T04:12:14.806Z,12.60
2019-02-06T04:15:03.110Z,12.77
2019-02-06T04:17:45.377Z,11.67
2019-02-06T04:20:26.232Z,13.70
2019-02-06T04:23:07.496Z,13.13
2019-02-06T04:25:49.212Z,11.83
2019-02-06T04:28:30.448Z,11.93
2019-02-06T04:31:11.435Z,14.00
2019-02-06T04:33:40.997Z,14.53
2019-02-06T04:36:29.364Z,12.57
2019-02-06T04:39:17.912Z,11.97
2019-02-06T04:42:06.215Z,14.27
2019-02-06T04:44:54.440Z,12.67
2019-02-06T04:47:44.484Z,12.30
2019-02-06T04:50:13.714Z,13.00
2019-02-06T04:53:02.039Z,13.60
2019-02-06T04:55:51.957Z,12.63
2019-02-06T04:58:40.423Z,12.70
2019-02-06T05:01:28.652Z,13.50
2019-02-06T05:04:16.895Z,13.37
2019-02-06T05:07:05.139Z,12.40
2019-02-06T05:09:53.351Z,16.40
2019-02-06T05:12:41.763Z,15.07
2019-02-06T05:15:29.966Z,13.80
2019-02-06T05:17:59.352Z,15.40
2019-02-06T05:20:39.583Z,16.57
2019-02-06T05:23:09.635Z,23.30
2019-02-06T05:25:57.860Z,22.20
2019-02-06T05:28:26.963Z,15.23
2019-02-06T05:31:15.268Z,14.73
2019-02-06T05:34:03.483Z,18.33
2019-02-06T05:36:51.734Z,23.20
2019-02-06T05:39:40.308Z,25.90
2019-02-06T05:42:28.931Z,20.57
2019-02-06T05:45:17.153Z,21.83
2019-02-06T05:48:05.386Z,32.90
2019-02-06T05:50:53.677Z,26.03
2019-02-06T05:53:41.982Z,27.27
2019-02-06T05:56:30.215Z,20.47
2019-02-06T05:59:18.429Z,17.20
2019-02-06T06:02:06.817Z,16.70
2019-02-06T06:04:55.110Z,17.60
2019-02-06T06:07:45.525Z,18.47
2019-02-06T06:10:33.297Z,17.20
2019-02-06T06:13:21.612Z,17.87
2019-02-06T06:16:10.208Z,17.67
2019-02-06T06:18:51.740Z,18.27
2019-02-06T06:21:32.658Z,18.20
2019-02-06T06:24:13.189Z,16.80
2019-02-06T06:26:54.579Z,15.57
2019-02-06T06:29:35.788Z,15.87
2019-02-06T06:32:04.939Z,17.10
2019-02-06T06:34:53.143Z,16.57
2019-02-06T06:37:41.772Z,15.73
2019-02-06T06:40:31.335Z,17.07
2019-02-06T06:43:19.941Z,16.03
2019-02-06T06:46:08.417Z,15.90
2019-02-06T06:48:56.716Z,17.37
2019-02-06T06:51:37.159Z,16.40
2019-02-06T06:54:18.415Z,18.87
2019-02-06T06:56:58.996Z,16.17
2019-02-06T06:59:40.202Z,18.10
2019-02-06T07:02:21.504Z,16.93
2019-02-06T07:04:50.640Z,16.37
2019-02-06T07:07:39.148Z,17.80
2019-02-06T07:10:27.362Z,17.03
2019-02-06T07:13:15.596Z,15.77
2019-02-06T07:16:03.880Z,17.03
2019-02-06T07:18:52.108Z,16.87
2019-02-06T07:21:21.222Z,17.47
2019-02-06T07:24:09.512Z,18.23
2019-02-06T07:26:57.716Z,17.57
2019-02-06T07:29:46.019Z,16.10
2019-02-06T07:32:36.443Z,16.33
2019-02-06T07:35:25.897Z,18.20
2019-02-06T07:38:23.927Z,18.60
2019-02-06T07:41:04.134Z,18.27
2019-02-06T07:43:52.437Z,17.93
2019-02-06T07:46:40.711Z,18.10
2019-02-06T07:49:28.942Z,22.23
2019-02-06T07:52:09.885Z,24.30
2019-02-06T07:54:50.728Z,25.47
2019-02-06T07:57:31.652Z,22.30
2019-02-06T08:00:12.604Z,17.10
2019-02-06T08:02:53.493Z,18.80
2019-02-06T08:05:33.987Z,19.37
2019-02-06T08:08:14.969Z,21.80
2019-02-06T08:10:56.083Z,19.40
2019-02-06T08:13:37.099Z,19.40
2019-02-06T08:16:07.434Z,18.60
2019-02-06T08:18:56.336Z,16.93
2019-02-06T08:21:44.615Z,17.10
2019-02-06T08:24:32.856Z,18.03
2019-02-06T08:27:21.065Z,19.70
2019-02-06T08:30:12.323Z,18.13
2019-02-06T08:33:00.568Z,18.70
2019-02-06T08:35:49.139Z,19.53
2019-02-06T08:38:47.460Z,19.87
2019-02-06T08:41:08.429Z,17.77
2019-02-06T08:43:57.260Z,18.37
2019-02-06T08:46:45.721Z,18.70
2019-02-06T08:49:34.539Z,17.77
2019-02-06T08:52:15.342Z,16.40
2019-02-06T08:54:55.826Z,20.30
2019-02-06T08:57:36.943Z,19.10
2019-02-06T09:00:18.366Z,23.03
2019-02-06T09:02:59.580Z,18.70
2019-02-06T09:05:41.221Z,19.67
2019-02-06T09:08:22.320Z,18.83
2019-02-06T09:11:02.953Z,16.77
2019-02-06T09:13:44.076Z,17.70
2019-02-06T09:16:25.364Z,18.40
2019-02-06T09:19:05.833Z,18.30
2019-02-06T09:21:46.733Z,17.50
2019-02-06T09:24:27.363Z,16.50
2019-02-06T09:27:07.962Z,18.97
2019-02-06T09:29:49.671Z,18.60
2019-02-06T09:32:30.500Z,17.93
2019-02-06T09:35:11.637Z,17.40
2019-02-06T09:37:53.136Z,18.40
2019-02-06T09:40:34.012Z,18.13
2019-02-06T09:43:14.825Z,20.40
2019-02-06T09:45:57.095Z,20.70
2019-02-06T09:48:38.324Z,18.90
2019-02-06T09:51:19.464Z,19.40
2019-02-06T09:54:01.155Z,19.93
2019-02-06T09:56:41.979Z,19.63
2019-02-06T09:59:22.664Z,21.10
2019-02-06T10:02:03.352Z,19.00
2019-02-06T10:04:32.773Z,19.57
2019-02-06T10:07:21.050Z,19.50
2019-02-06T10:10:11.671Z,19.10
2019-02-06T10:13:00.131Z,21.30
2019-02-06T10:15:48.379Z,17.77
2019-02-06T10:18:36.575Z,19.10
2019-02-06T10:21:24.894Z,19.53
2019-02-06T10:24:13.148Z,21.60
2019-02-06T10:27:01.359Z,18.90
2019-02-06T10:29:51.384Z,20.60
2019-02-06T10:32:39.624Z,20.23
2019-02-06T10:35:27.849Z,19.63
2019-02-06T10:38:16.128Z,20.20
2019-02-06T10:40:45.341Z,20.67
2019-02-06T10:43:35.815Z,19.97
2019-02-06T10:46:23.496Z,19.77
2019-02-06T10:49:11.943Z,20.53
2019-02-06T10:52:00.597Z,20.77
2019-02-06T10:54:48.914Z,23.53
2019-02-06T10:57:37.196Z,22.30
2019-02-06T11:00:30.023Z,22.57
2019-02-06T11:03:19.755Z,23.70
2019-02-06T11:06:08.004Z,23.60
2019-02-06T11:08:56.291Z,23.13
2019-02-06T11:11:44.531Z,22.80
2019-02-06T11:14:33.080Z,23.47
2019-02-06T11:17:13.851Z,22.40
2019-02-06T11:19:55.080Z,22.73
2019-02-06T11:22:36.440Z,24.10
2019-02-06T11:28:16.880Z,22.77
2019-02-06T11:30:58.122Z,25.90
2019-02-06T11:33:39.715Z,22.33
2019-02-06T11:36:24.147Z,23.23
2019-02-06T11:39:05.679Z,24.00
2019-02-06T11:41:46.324Z,26.97
2019-02-06T11:44:27.391Z,25.27
2019-02-06T11:46:56.677Z,23.73
2019-02-06T11:49:31.899Z,24.93
2019-02-06T11:52:01.032Z,25.13
2019-02-06T11:54:49.942Z,24.40
2019-02-06T11:57:38.216Z,25.80
2019-02-06T12:00:48.319Z,24.77
2019-02-06T12:03:35.550Z,25.47
2019-02-06T12:06:23.800Z,24.40
2019-02-06T12:08:53.295Z,23.40
2019-02-06T12:11:41.696Z,30.20
2019-02-06T12:14:29.923Z,24.80
2019-02-06T12:17:10.767Z,23.13
2019-02-06T12:19:52.300Z,23.83
2019-02-06T12:22:33.907Z,24.50
2019-02-06T12:25:14.992Z,23.67
2019-02-06T12:27:55.828Z,24.80
2019-02-06T12:30:37.356Z,23.00
2019-02-06T12:33:18.077Z,25.17
2019-02-06T12:35:58.903Z,24.73
2019-02-06T12:38:39.924Z,24.97
2019-02-06T12:41:20.737Z,23.10
2019-02-06T12:44:01.463Z,40.67
2019-02-06T12:46:42.951Z,24.07
2019-02-06T12:49:24.166Z,22.60
2019-02-06T12:52:05.112Z,23.57
2019-02-06T12:54:45.860Z,24.57
2019-02-06T12:57:36.454Z,24.87
2019-02-06T13:00:10.479Z,22.80
2019-02-06T13:03:00.147Z,22.73
2019-02-06T13:05:48.709Z,23.50
2019-02-06T13:08:36.916Z,22.73
2019-02-06T13:11:25.415Z,22.23
2019-02-06T13:13:54.536Z,21.77
2019-02-06T13:16:23.683Z,21.90
2019-02-06T13:19:11.967Z,20.27
2019-02-06T13:22:00.200Z,21.33
2019-02-06T13:24:48.912Z,26.43
2019-02-06T13:27:37.167Z,24.20
2019-02-06T13:30:44.785Z,26.73
2019-02-06T13:33:33.062Z,20.30
2019-02-06T13:36:13.815Z,21.40
2019-02-06T13:38:54.991Z,21.80
2019-02-06T13:41:36.378Z,21.90
2019-02-06T13:44:05.716Z,21.90
2019-02-06T13:46:34.923Z,22.23
2019-02-06T13:49:04.035Z,21.90
2019-02-06T13:51:33.239Z,22.77
2019-02-06T13:54:21.444Z,23.47
2019-02-06T13:57:09.772Z,20.47
2019-02-06T13:59:58.027Z,20.30
2019-02-06T14:02:46.372Z,21.20
2019-02-06T14:05:34.599Z,19.57
2019-02-06T14:08:23.084Z,20.40
2019-02-06T14:11:11.431Z,20.67
2019-02-06T14:13:59.635Z,21.73
2019-02-06T14:16:49.599Z,20.93
2019-02-06T14:19:38.069Z,19.70
2019-02-06T14:22:26.326Z,21.33
2019-02-06T14:25:20.349Z,20.10
2019-02-06T14:28:27.656Z,18.23
2019-02-06T14:31:35.035Z,17.57
2019-02-06T14:34:36.216Z,18.30
2019-02-06T14:37:17.572Z,19.00
2019-02-06T14:39:58.520Z,18.87
2019-02-06T14:42:40.105Z,18.00
2019-02-06T14:45:47.864Z,19.07
2019-02-06T14:48:55.235Z,18.37
2019-02-06T14:52:02.577Z,18.23
2019-02-06T14:55:09.864Z,19.77
2019-02-06T14:58:17.502Z,17.80
2019-02-06T15:01:25.254Z,18.47
2019-02-06T15:04:32.655Z,18.53
2019-02-06T15:07:40.081Z,19.70
2019-02-06T15:10:47.415Z,17.80
2019-02-06T15:13:54.736Z,18.97
2019-02-06T15:17:02.100Z,18.50
2019-02-06T15:20:09.836Z,17.60
2019-02-06T15:23:12.905Z,18.23
2019-02-06T15:26:20.387Z,16.83
2019-02-06T15:29:27.937Z,18.00
2019-02-06T15:32:35.612Z,17.17
2019-02-06T15:35:43.020Z,20.10
2019-02-06T15:38:24.357Z,19.30
2019-02-06T15:41:05.624Z,19.83
2019-02-06T15:44:13.358Z,19.53
2019-02-06T15:47:20.764Z,18.90
2019-02-06T15:50:28.056Z,19.93
2019-02-06T15:53:21.178Z,19.23
2019-02-06T15:56:28.564Z,19.47
2019-02-06T15:59:35.937Z,19.20
2019-02-06T16:02:43.349Z,20.13
2019-02-06T16:06:09.952Z,35.27
2019-02-06T16:09:17.396Z,20.90
2019-02-06T16:12:08.630Z,19.70
2019-02-06T16:15:16.190Z,18.57
2019-02-06T16:17:57.551Z,20.07
2019-02-06T16:20:38.376Z,20.43
2019-02-06T16:23:19.440Z,22.70
2019-02-06T16:26:00.111Z,20.80
2019-02-06T16:28:40.972Z,20.80
2019-02-06T16:31:21.524Z,20.83
2019-02-06T16:34:02.085Z,20.50
2019-02-06T16:36:43.065Z,21.43
2019-02-06T16:39:23.791Z,21.13
2019-02-06T16:42:05.512Z,21.80
2019-02-06T16:44:45.915Z,30.80
2019-02-06T16:47:27.130Z,30.60
2019-02-06T16:50:09.025Z,25.77
2019-02-06T16:52:50.044Z,24.93
2019-02-06T16:55:30.647Z,25.30
2019-02-06T16:58:11.100Z,26.53
2019-02-06T17:00:52.029Z,34.50
2019-02-06T17:03:33.115Z,39.70
2019-02-06T17:06:14.299Z,44.83
2019-02-06T17:08:55.041Z,41.87
2019-02-06T17:14:35.903Z,35.00
2019-02-06T17:17:17.271Z,27.77
2019-02-06T17:19:57.925Z,22.77
2019-02-06T17:22:39.099Z,21.40
2019-02-06T17:25:19.736Z,19.70
2019-02-06T17:28:00.260Z,21.27
2019-02-06T17:30:40.955Z,20.20
2019-02-06T17:33:22.535Z,18.90
2019-02-06T17:36:03.358Z,18.93
2019-02-06T17:38:44.767Z,20.20
2019-02-06T17:41:52.235Z,20.53
2019-02-06T17:44:59.908Z,20.30
2019-02-06T17:48:07.785Z,21.33
2019-02-06T17:51:15.207Z,21.37
2019-02-06T17:54:22.659Z,20.50
2019-02-06T17:57:11.740Z,18.53
2019-02-06T18:00:00.648Z,17.80
2019-02-06T18:02:30.411Z,20.23
2019-02-06T18:04:59.910Z,19.47
2019-02-06T18:07:48.197Z,20.57
2019-02-06T18:10:18.200Z,22.37
2019-02-06T18:13:00.052Z,22.57
2019-02-06T18:15:41.163Z,24.47
2019-02-06T18:18:22.234Z,20.30
2019-02-06T18:21:03.089Z,20.07
2019-02-06T18:23:44.207Z,20.23
2019-02-06T18:26:24.704Z,20.90
2019-02-06T18:29:05.943Z,24.70
2019-02-06T18:31:46.698Z,21.03
2019-02-06T18:34:16.453Z,20.80
2019-02-06T18:36:46.164Z,20.73
2019-02-06T18:39:36.091Z,20.13
2019-02-06T18:46:01.469Z,21.10
2019-02-06T18:48:51.941Z,31.17
2019-02-06T18:51:21.393Z,35.70
2019-02-06T18:54:13.978Z,34.63
2019-02-06T18:56:45.680Z,32.43
2019-02-06T18:59:34.395Z,30.53
2019-02-06T19:02:23.251Z,26.53
2019-02-06T19:05:12.305Z,24.30
2019-02-06T19:08:00.897Z,22.93
2019-02-06T19:10:49.621Z,22.87
2019-02-06T19:13:30.564Z,24.10
2019-02-06T19:18:57.739Z,24.00
2019-02-06T19:21:39.168Z,23.40
2019-02-06T19:24:19.731Z,24.80
2019-02-06T19:27:00.900Z,23.30
2019-02-06T19:29:42.455Z,25.27
2019-02-06T19:32:23.619Z,21.70
2019-02-06T19:35:04.715Z,24.27
2019-02-06T19:37:48.388Z,23.00
2019-02-06T19:40:29.073Z,20.80
2019-02-06T19:43:10.599Z,24.60
2019-02-06T19:45:52.039Z,25.93
2019-02-06T19:48:22.463Z,24.03
2019-02-06T19:51:12.215Z,21.90
2019-02-06T19:54:00.609Z,21.53
2019-02-06T19:56:49.192Z,19.87
2019-02-06T19:59:37.660Z,20.07
2019-02-06T20:02:26.381Z,21.10
2019-02-06T20:05:02.595Z,19.20
2019-02-06T20:10:46.574Z,21.63
2019-02-06T20:13:34.863Z,19.07
2019-02-06T20:16:23.543Z,20.77
2019-02-06T20:19:12.671Z,21.70
2019-02-06T20:22:03.088Z,22.80
2019-02-06T20:24:51.447Z,23.03
2019-02-06T20:27:39.884Z,19.93
2019-02-06T20:30:28.964Z,18.13
2019-02-06T20:33:17.255Z,21.93
2019-02-06T20:36:05.713Z,21.93
2019-02-06T20:38:53.928Z,21.93
2019-02-06T20:41:43.912Z,22.60
2019-02-06T20:44:24.797Z,23.20
2019-02-06T20:47:06.585Z,21.10
2019-02-06T20:49:48.463Z,21.63
2019-02-06T20:52:30.336Z,19.77
2019-02-06T20:55:11.734Z,18.73
2019-02-06T20:57:52.956Z,20.23
2019-02-06T21:00:34.351Z,19.67
2019-02-06T21:06:18.721Z,21.47
2019-02-06T21:09:30.623Z,21.50
2019-02-06T21:12:12.052Z,19.83
2019-02-06T21:14:53.563Z,19.13
2019-02-06T21:17:34.399Z,17.93
2019-02-06T21:20:15.949Z,19.47
2019-02-06T21:22:57.263Z,18.63
2019-02-06T21:25:38.230Z,18.43
2019-02-06T21:28:19.657Z,19.60
2019-02-06T21:31:01.032Z,20.67
2019-02-06T21:33:42.818Z,18.50
2019-02-06T21:36:24.479Z,19.77
2019-02-06T21:38:54.348Z,20.20
2019-02-06T21:41:44.308Z,19.40
2019-02-06T21:44:14.059Z,20.90
2019-02-06T21:47:02.817Z,19.40
2019-02-06T21:49:32.555Z,21.17
2019-02-06T21:52:20.873Z,21.27
2019-02-06T21:55:09.834Z,20.60
2019-02-06T21:57:58.139Z,23.03
2019-02-06T22:00:46.764Z,18.70
2019-02-06T22:03:35.272Z,19.13
2019-02-06T22:06:23.559Z,18.57
2019-02-06T22:09:12.105Z,19.67
2019-02-06T22:12:00.560Z,19.53
2019-02-06T22:14:42.093Z,18.50
2019-02-06T22:17:22.730Z,18.40
2019-02-06T22:20:03.519Z,19.30
2019-02-06T22:22:44.889Z,18.73
2019-02-06T22:25:25.681Z,21.47
2019-02-06T22:28:06.715Z,18.60
2019-02-06T22:30:47.592Z,19.23
2019-02-06T22:33:28.478Z,19.90
2019-02-06T22:36:09.404Z,20.40
2019-02-06T22:38:50.279Z,20.77
2019-02-06T22:41:31.424Z,19.33
2019-02-06T22:44:13.348Z,19.73
2019-02-06T22:46:54.058Z,21.10
2019-02-06T22:49:35.484Z,19.70
2019-02-06T22:52:16.867Z,19.27
2019-02-06T22:54:58.044Z,20.57
2019-02-06T22:57:39.080Z,19.90
2019-02-06T23:00:24.184Z,19.30
2019-02-06T23:03:02.683Z,19.87
2019-02-06T23:05:43.435Z,18.03
2019-02-06T23:08:24.105Z,20.23
2019-02-06T23:11:05.058Z,19.33
2019-02-06T23:13:45.892Z,19.60
2019-02-06T23:16:26.443Z,19.90
2019-02-06T23:19:06.851Z,19.13
2019-02-06T23:21:47.792Z,21.10
2019-02-06T23:24:16.943Z,20.40
2019-02-06T23:27:05.158Z,18.70
2019-02-06T23:29:53.555Z,18.70
2019-02-06T23:32:41.823Z,19.77
2019-02-06T23:35:30.063Z,18.53
2019-02-06T23:38:18.296Z,18.97
2019-02-06T23:40:49.137Z,19.57
2019-02-06T23:43:18.315Z,20.60
2019-02-06T23:45:47.425Z,18.70
2019-02-06T23:48:35.733Z,19.60
2019-02-06T23:51:24.022Z,19.60
2019-02-06T23:54:12.319Z,18.93
2019-02-06T23:57:00.538Z,20.13
2019-02-06T23:59:48.832Z,18.33
